createdAt,value
2017-09-18T00:01:51.665Z,8.57
2017-09-18T00:04:21.622Z,8.88
2017-09-18T00:06:49.642Z,9.23
2017-09-18T00:09:17.677Z,8.70
2017-09-18T00:12:01.195Z,9.40
2017-09-18T00:14:29.229Z,9.48
2017-09-18T00:16:57.253Z,8.85
2017-09-18T00:19:26.929Z,9.18
2017-09-18T00:21:55.866Z,8.98
2017-09-18T00:24:29.113Z,9.43
2017-09-18T00:27:04.701Z,9.00
2017-09-18T00:29:33.649Z,10.07
2017-09-18T00:32:01.665Z,10.38
2017-09-18T00:34:29.718Z,8.60
2017-09-18T00:37:09.305Z,10.57
2017-09-18T00:39:38.329Z,9.98
2017-09-18T00:42:11.597Z,9.88
2017-09-18T00:44:39.637Z,8.75
2017-09-18T00:47:12.549Z,10.23
2017-09-18T00:49:40.641Z,9.23
2017-09-18T00:52:09.653Z,11.38
2017-09-18T00:54:37.697Z,10.40
2017-09-18T00:57:12.429Z,10.65
2017-09-18T00:59:56.825Z,9.95
2017-09-18T01:02:25.781Z,11.23
2017-09-18T01:05:11.877Z,10.80
2017-09-18T01:07:43.273Z,11.40
2017-09-18T01:10:12.209Z,9.80
2017-09-18T01:12:51.421Z,10.00
2017-09-18T01:15:27.125Z,9.25
2017-09-18T01:17:55.925Z,9.35
2017-09-18T01:20:23.933Z,8.05
2017-09-18T01:22:53.677Z,8.80
2017-09-18T01:25:27.065Z,7.78
2017-09-18T01:27:56.049Z,10.65
2017-09-18T01:30:24.057Z,10.98
2017-09-18T01:32:52.165Z,9.48
2017-09-18T01:35:25.913Z,9.50
2017-09-18T01:37:58.481Z,10.30
2017-09-18T01:40:30.009Z,10.30
2017-09-18T01:42:58.064Z,9.18
2017-09-18T01:45:26.077Z,9.00
2017-09-18T01:47:55.040Z,10.52
2017-09-18T01:50:23.073Z,10.43
2017-09-18T01:52:53.040Z,9.18
2017-09-18T01:55:21.093Z,9.75
2017-09-18T01:57:49.116Z,9.15
2017-09-18T02:00:28.096Z,9.98
2017-09-18T02:02:56.128Z,10.80
2017-09-18T02:05:24.140Z,9.75
2017-09-18T02:07:53.136Z,10.18
2017-09-18T02:10:22.132Z,8.85
2017-09-18T02:12:50.148Z,8.88
2017-09-18T02:15:18.160Z,9.45
2017-09-18T02:17:47.215Z,8.90
2017-09-18T02:20:21.812Z,8.60
2017-09-18T02:23:00.612Z,8.85
2017-09-18T02:25:29.592Z,8.48
2017-09-18T02:27:59.616Z,9.05
2017-09-18T02:30:27.632Z,7.32
2017-09-18T02:33:03.516Z,8.18
2017-09-18T02:35:34.671Z,7.10
2017-09-18T02:38:02.709Z,7.05
2017-09-18T02:40:31.628Z,9.07
2017-09-18T02:43:00.620Z,8.55
2017-09-18T02:45:29.944Z,7.18
2017-09-18T02:47:57.971Z,6.57
2017-09-18T02:50:25.980Z,6.82
2017-09-18T02:52:55.000Z,6.82
2017-09-18T02:55:22.980Z,7.82
2017-09-18T02:57:51.916Z,7.72
2017-09-18T03:00:19.956Z,6.45
2017-09-18T03:03:00.592Z,6.82
2017-09-18T03:05:31.289Z,8.85
2017-09-18T03:08:02.660Z,6.10
2017-09-18T03:10:33.367Z,7.07
2017-09-18T03:13:01.388Z,7.25
2017-09-18T03:15:30.316Z,6.68
2017-09-18T03:17:59.359Z,6.78
2017-09-18T03:20:28.307Z,6.53
2017-09-18T03:22:57.311Z,11.15
2017-09-18T03:25:25.357Z,6.65
2017-09-18T03:27:53.403Z,7.45
2017-09-18T03:30:22.338Z,7.37
2017-09-18T03:32:52.395Z,6.93
2017-09-18T03:35:23.195Z,6.45
2017-09-18T03:37:54.363Z,6.35
2017-09-18T03:40:23.147Z,6.00
2017-09-18T03:42:52.948Z,8.32
2017-09-18T03:45:22.972Z,7.18
2017-09-18T03:47:50.987Z,6.05
2017-09-18T03:50:25.723Z,6.40
2017-09-18T03:53:04.631Z,6.12
2017-09-18T03:55:33.671Z,5.82
2017-09-18T03:58:01.683Z,5.53
2017-09-18T04:00:29.691Z,5.78
2017-09-18T04:03:00.956Z,6.18
2017-09-18T04:05:28.976Z,5.00
2017-09-18T04:07:58.919Z,6.43
2017-09-18T04:10:28.939Z,6.53
2017-09-18T04:13:04.975Z,8.25
2017-09-18T04:15:36.163Z,6.62
2017-09-18T04:18:06.155Z,6.53
2017-09-18T04:20:34.171Z,7.75
2017-09-18T04:23:02.196Z,7.30
2017-09-18T04:25:30.208Z,7.37
2017-09-18T04:27:59.971Z,11.95
2017-09-18T04:30:28.980Z,7.97
2017-09-18T04:33:01.379Z,7.87
2017-09-18T04:35:30.175Z,8.32
2017-09-18T04:37:58.187Z,8.25
2017-09-18T04:40:26.211Z,8.90
2017-09-18T04:42:59.375Z,9.43
2017-09-18T04:45:27.391Z,8.05
2017-09-18T04:47:57.152Z,8.50
2017-09-18T04:50:26.183Z,9.32
2017-09-18T04:52:54.255Z,9.07
2017-09-18T04:55:22.295Z,10.75
2017-09-18T04:57:51.091Z,10.25
2017-09-18T05:00:20.891Z,9.32
2017-09-18T05:02:50.699Z,9.65
2017-09-18T05:05:18.722Z,10.60
2017-09-18T05:07:48.666Z,13.80
2017-09-18T05:10:16.846Z,13.15
2017-09-18T05:12:48.831Z,14.15
2017-09-18T05:15:17.667Z,10.63
2017-09-18T05:17:48.727Z,9.35
2017-09-18T05:20:18.843Z,12.07
2017-09-18T05:22:56.835Z,15.27
2017-09-18T05:25:27.335Z,10.05
2017-09-18T05:27:55.354Z,11.40
2017-09-18T05:30:28.722Z,10.25
2017-09-18T05:32:56.742Z,22.98
2017-09-18T05:35:24.795Z,17.45
2017-09-18T05:37:56.258Z,20.80
2017-09-18T05:40:24.431Z,23.85
2017-09-18T05:43:00.462Z,15.98
2017-09-18T05:45:30.523Z,13.20
2017-09-18T05:47:59.482Z,11.75
2017-09-18T05:50:27.518Z,10.98
2017-09-18T05:53:01.519Z,10.57
2017-09-18T05:55:46.158Z,10.77
2017-09-18T05:58:14.182Z,11.30
2017-09-18T06:03:11.830Z,11.65
2017-09-18T06:05:46.136Z,9.80
2017-09-18T06:08:15.178Z,10.35
2017-09-18T06:10:44.154Z,9.45
2017-09-18T06:13:12.174Z,9.30
2017-09-18T06:15:40.215Z,9.40
2017-09-18T06:18:11.858Z,9.48
2017-09-18T06:20:39.898Z,8.13
2017-09-18T06:23:12.474Z,8.05
2017-09-18T06:25:40.498Z,7.40
2017-09-18T06:28:08.514Z,8.05
2017-09-18T06:30:43.058Z,7.87
2017-09-18T06:33:11.062Z,7.80
2017-09-18T06:35:39.852Z,9.75
2017-09-18T06:38:08.646Z,8.20
2017-09-18T06:40:36.666Z,7.72
2017-09-18T06:43:06.685Z,7.20
2017-09-18T06:45:35.731Z,8.23
2017-09-18T06:48:03.802Z,8.60
2017-09-18T06:50:33.770Z,24.50
2017-09-18T06:53:01.810Z,12.95
2017-09-18T06:55:32.533Z,11.45
2017-09-18T06:58:00.553Z,8.68
2017-09-18T07:00:28.626Z,6.90
2017-09-18T07:02:56.662Z,7.95
2017-09-18T07:05:24.663Z,9.98
2017-09-18T07:07:53.662Z,11.18
2017-09-18T07:10:22.582Z,9.13
2017-09-18T07:12:51.369Z,10.43
2017-09-18T07:15:20.285Z,8.27
2017-09-18T07:17:48.297Z,6.28
2017-09-18T07:20:16.321Z,7.10
2017-09-18T07:22:46.285Z,6.70
2017-09-18T07:25:18.844Z,4.85
2017-09-18T07:27:46.878Z,4.05
2017-09-18T07:30:21.036Z,3.10
2017-09-18T07:33:01.781Z,4.70
2017-09-18T07:35:35.709Z,5.70
2017-09-18T07:38:04.821Z,2.33
2017-09-18T07:40:34.809Z,2.25
2017-09-18T07:43:04.561Z,2.67
2017-09-18T07:45:33.373Z,2.30
2017-09-18T07:48:03.342Z,1.98
2017-09-18T07:50:38.132Z,1.92
2017-09-18T07:53:06.158Z,14.00
2017-09-18T07:55:34.213Z,2.65
2017-09-18T07:58:03.034Z,2.55
2017-09-18T08:00:38.133Z,4.45
2017-09-18T08:03:11.353Z,6.50
2017-09-18T08:05:39.382Z,2.05
2017-09-18T08:08:08.317Z,3.40
2017-09-18T08:10:36.357Z,2.65
2017-09-18T08:13:04.385Z,1.87
2017-09-18T08:15:38.057Z,2.25
2017-09-18T08:18:11.833Z,2.22
2017-09-18T08:20:41.853Z,3.65
2017-09-18T08:23:21.448Z,3.95
2017-09-18T08:25:56.053Z,2.33
2017-09-18T08:28:24.977Z,3.00
2017-09-18T08:30:53.013Z,2.05
2017-09-18T08:33:21.044Z,2.03
2017-09-18T08:35:50.837Z,2.30
2017-09-18T08:38:22.105Z,1.80
2017-09-18T08:40:50.905Z,2.00
2017-09-18T08:43:19.693Z,1.27
2017-09-18T08:45:48.541Z,1.60
2017-09-18T08:48:20.653Z,2.65
2017-09-18T08:50:55.245Z,1.40
2017-09-18T08:53:23.269Z,1.30
2017-09-18T08:55:53.217Z,1.67
2017-09-18T08:58:21.320Z,1.50
2017-09-18T09:00:49.322Z,1.60
2017-09-18T09:03:23.164Z,1.40
2017-09-18T09:05:54.252Z,1.43
2017-09-18T09:08:23.045Z,1.10
2017-09-18T09:10:54.489Z,2.70
2017-09-18T09:13:23.433Z,1.20
2017-09-18T09:15:51.456Z,1.33
2017-09-18T09:18:19.492Z,1.47
2017-09-18T09:20:50.988Z,1.30
2017-09-18T09:23:18.993Z,2.10
2017-09-18T09:25:50.169Z,1.50
2017-09-18T09:28:26.588Z,1.33
2017-09-18T09:30:54.645Z,1.30
2017-09-18T09:33:25.688Z,1.53
2017-09-18T09:35:55.624Z,1.93
2017-09-18T09:38:29.236Z,1.13
2017-09-18T09:41:01.208Z,1.10
2017-09-18T09:43:32.893Z,1.30
2017-09-18T09:46:00.948Z,1.10
2017-09-18T09:48:29.740Z,1.00
2017-09-18T09:51:08.828Z,1.10
2017-09-18T09:53:36.852Z,1.20
2017-09-18T09:56:08.368Z,3.23
2017-09-18T09:58:37.357Z,1.73
2017-09-18T10:01:05.376Z,1.83
2017-09-18T10:03:36.976Z,1.43
2017-09-18T10:06:08.428Z,3.20
2017-09-18T10:08:36.476Z,1.57
2017-09-18T10:11:04.507Z,1.30
2017-09-18T10:13:34.428Z,1.20
2017-09-18T10:16:04.420Z,1.53
2017-09-18T10:18:33.388Z,4.20
2017-09-18T10:21:01.420Z,1.53
2017-09-18T10:23:29.464Z,2.97
2017-09-18T10:25:58.244Z,1.13
2017-09-18T10:28:27.032Z,1.20
2017-09-18T10:30:56.753Z,1.07
2017-09-18T10:33:25.540Z,1.03
2017-09-18T10:35:53.572Z,1.20
2017-09-18T10:38:21.618Z,1.17
2017-09-18T10:40:54.063Z,1.10
2017-09-18T10:43:23.115Z,1.10
2017-09-18T10:45:56.579Z,2.37
2017-09-18T10:48:25.603Z,1.53
2017-09-18T10:50:54.587Z,1.17
2017-09-18T10:53:29.807Z,1.73
2017-09-18T10:56:07.463Z,4.00
2017-09-18T10:58:36.432Z,1.00
2017-09-18T11:01:04.452Z,1.63
2017-09-18T11:03:49.427Z,1.60
2017-09-18T11:06:17.463Z,1.60
2017-09-18T11:08:45.498Z,1.53
2017-09-18T11:11:13.523Z,1.60
2017-09-18T11:13:45.083Z,1.37
2017-09-18T11:16:13.123Z,1.40
2017-09-18T11:18:41.143Z,1.90
2017-09-18T11:21:10.063Z,1.63
2017-09-18T11:23:39.875Z,1.67
2017-09-18T11:26:08.658Z,0.93
2017-09-18T11:28:37.618Z,0.70
2017-09-18T11:31:05.647Z,0.77
2017-09-18T11:33:33.684Z,1.10
2017-09-18T11:36:01.699Z,1.00
2017-09-18T11:38:30.791Z,0.97
2017-09-18T11:40:59.583Z,1.10
2017-09-18T11:43:30.919Z,2.50
2017-09-18T11:45:58.935Z,2.80
2017-09-18T11:48:26.967Z,1.23
2017-09-18T11:51:06.839Z,1.63
2017-09-18T11:53:41.595Z,1.10
2017-09-18T11:56:09.627Z,1.20
2017-09-18T11:58:39.534Z,1.87
2017-09-18T12:01:07.559Z,1.43
2017-09-18T12:03:36.366Z,1.30
2017-09-18T12:06:04.383Z,2.00
2017-09-18T12:08:32.407Z,1.93
2017-09-18T12:11:01.370Z,1.60
2017-09-18T12:13:30.187Z,1.70
2017-09-18T12:15:58.986Z,0.97
2017-09-18T12:18:30.074Z,1.20
2017-09-18T12:21:09.775Z,7.83
2017-09-18T12:23:45.879Z,2.00
2017-09-18T12:26:17.159Z,1.60
2017-09-18T12:28:51.795Z,1.67
2017-09-18T12:31:20.727Z,2.17
2017-09-18T12:33:56.219Z,1.50
2017-09-18T12:36:25.034Z,1.27
2017-09-18T12:38:53.027Z,1.03
2017-09-18T12:41:21.067Z,1.93
2017-09-18T12:43:50.838Z,2.30
2017-09-18T12:46:22.594Z,3.87
2017-09-18T12:48:51.386Z,1.50
2017-09-18T12:51:21.087Z,1.50
2017-09-18T12:53:50.086Z,1.50
2017-09-18T12:56:18.875Z,1.70
2017-09-18T12:58:47.686Z,2.53
2017-09-18T13:01:15.754Z,4.43
2017-09-18T13:03:43.830Z,2.77
2017-09-18T13:06:12.766Z,2.07
2017-09-18T13:08:40.818Z,2.10
2017-09-18T13:11:09.739Z,0.90
2017-09-18T13:13:43.347Z,1.00
2017-09-18T13:16:15.630Z,1.77
2017-09-18T13:18:50.522Z,2.80
2017-09-18T13:21:20.579Z,4.20
2017-09-18T13:23:56.374Z,2.77
2017-09-18T13:26:24.398Z,3.03
2017-09-18T13:28:54.209Z,2.00
2017-09-18T13:31:23.954Z,3.27
2017-09-18T13:33:51.974Z,2.80
2017-09-18T13:36:22.695Z,1.83
2017-09-18T13:38:54.351Z,2.10
2017-09-18T13:41:24.358Z,1.80
2017-09-18T13:43:52.390Z,2.30
2017-09-18T13:46:21.322Z,2.40
2017-09-18T13:48:49.358Z,2.90
2017-09-18T13:51:17.370Z,3.57
2017-09-18T13:53:47.314Z,2.00
2017-09-18T13:56:15.334Z,2.67
2017-09-18T13:58:43.358Z,2.00
2017-09-18T14:01:12.310Z,1.90
2017-09-18T14:03:42.230Z,3.87
2017-09-18T14:06:10.246Z,2.77
2017-09-18T14:08:39.294Z,2.30
2017-09-18T14:11:08.266Z,2.13
2017-09-18T14:13:37.179Z,2.37
2017-09-18T14:16:10.666Z,2.80
2017-09-18T14:18:46.479Z,2.63
2017-09-18T14:21:14.510Z,3.10
2017-09-18T14:23:43.294Z,3.47
2017-09-18T14:26:20.290Z,3.20
2017-09-18T14:28:48.354Z,3.50
2017-09-18T14:31:19.298Z,3.30
2017-09-18T14:33:47.330Z,3.20
2017-09-18T14:36:18.886Z,2.60
2017-09-18T14:38:51.502Z,2.57
2017-09-18T14:41:30.454Z,2.00
2017-09-18T14:43:58.470Z,3.13
2017-09-18T14:46:28.402Z,3.47
2017-09-18T14:48:58.186Z,2.70
2017-09-18T14:51:26.218Z,2.27
2017-09-18T14:53:54.250Z,1.80
2017-09-18T14:56:23.978Z,2.30
2017-09-18T14:58:52.050Z,2.70
2017-09-18T15:01:20.993Z,2.43
2017-09-18T15:03:49.990Z,2.43
2017-09-18T15:06:18.042Z,2.90
2017-09-18T15:08:46.070Z,2.60
2017-09-18T15:11:14.157Z,2.67
2017-09-18T15:13:42.178Z,4.00
2017-09-18T15:16:10.211Z,2.97
2017-09-18T15:18:38.253Z,3.80
2017-09-18T15:21:06.289Z,3.83
2017-09-18T15:23:34.333Z,2.60
2017-09-18T15:26:04.266Z,2.70
2017-09-18T15:28:33.249Z,4.73
2017-09-18T15:31:01.281Z,2.57
2017-09-18T15:33:33.717Z,2.33
2017-09-18T15:36:06.479Z,3.10
2017-09-18T15:38:34.573Z,3.23
2017-09-18T15:41:05.797Z,3.50
2017-09-18T15:43:33.857Z,5.13
2017-09-18T15:46:02.783Z,2.80
2017-09-18T15:48:31.565Z,4.10
2017-09-18T15:51:04.949Z,3.20
2017-09-18T15:53:33.921Z,2.47
2017-09-18T15:56:03.061Z,2.60
2017-09-18T15:58:31.101Z,2.10
2017-09-18T16:00:59.129Z,2.80
2017-09-18T16:03:29.057Z,2.60
2017-09-18T16:06:08.905Z,3.60
2017-09-18T16:08:37.017Z,3.50
2017-09-18T16:11:05.393Z,4.97
2017-09-18T16:13:36.113Z,3.77
2017-09-18T16:16:04.149Z,3.27
2017-09-18T16:18:32.173Z,4.40
2017-09-18T16:21:01.985Z,8.73
2017-09-18T16:23:32.593Z,3.57
2017-09-18T16:26:00.625Z,4.00
2017-09-18T16:28:34.965Z,3.90
2017-09-18T16:31:03.003Z,3.53
2017-09-18T16:33:31.017Z,4.13
2017-09-18T16:36:00.021Z,5.37
2017-09-18T16:38:29.821Z,9.27
2017-09-18T16:40:57.841Z,3.83
2017-09-18T16:43:29.348Z,3.80
2017-09-18T16:45:58.341Z,3.03
2017-09-18T16:48:27.312Z,3.13
2017-09-18T16:50:59.900Z,3.83
2017-09-18T16:53:28.880Z,3.67
2017-09-18T16:55:57.884Z,4.57
2017-09-18T16:58:25.932Z,4.93
2017-09-18T17:00:59.604Z,4.77
2017-09-18T17:03:27.680Z,4.10
2017-09-18T17:06:01.816Z,12.07
2017-09-18T17:08:29.872Z,4.37
2017-09-18T17:10:58.896Z,3.47
2017-09-18T17:13:26.936Z,3.85
2017-09-18T17:15:56.016Z,5.95
2017-09-18T17:18:29.668Z,3.47
2017-09-18T17:21:08.576Z,4.10
2017-09-18T17:23:44.644Z,3.37
2017-09-18T17:26:17.217Z,3.80
2017-09-18T17:28:45.248Z,3.72
2017-09-18T17:31:13.308Z,4.93
2017-09-18T17:33:42.240Z,5.37
2017-09-18T17:36:10.280Z,4.85
2017-09-18T17:38:41.376Z,4.57
2017-09-18T17:41:09.404Z,5.07
2017-09-18T17:43:39.340Z,5.65
2017-09-18T17:46:08.295Z,5.70
2017-09-18T17:48:37.244Z,7.05
2017-09-18T17:51:08.944Z,9.05
2017-09-18T17:53:41.779Z,8.02
2017-09-18T17:56:09.829Z,11.35
2017-09-18T17:58:41.812Z,7.93
2017-09-18T18:01:09.908Z,7.80
2017-09-18T18:03:39.628Z,7.30
2017-09-18T18:06:08.408Z,8.25
2017-09-18T18:08:39.228Z,10.02
2017-09-18T18:11:09.016Z,10.48
2017-09-18T18:13:37.044Z,10.15
2017-09-18T18:16:05.076Z,8.95
2017-09-18T18:18:34.072Z,9.23
2017-09-18T18:21:08.560Z,10.00
2017-09-18T18:23:40.676Z,5.97
2017-09-18T18:26:09.480Z,6.93
2017-09-18T18:28:37.496Z,8.52
2017-09-18T18:31:06.539Z,7.70
2017-09-18T18:33:36.220Z,9.07
2017-09-18T18:36:06.147Z,8.40
2017-09-18T18:38:36.919Z,8.27
2017-09-18T18:41:05.132Z,12.63
2017-09-18T18:43:37.204Z,10.00
2017-09-18T18:46:08.948Z,8.27
2017-09-18T18:48:43.276Z,9.48
2017-09-18T18:51:12.252Z,9.15
2017-09-18T18:53:44.751Z,7.90
2017-09-18T18:56:15.460Z,10.05
2017-09-18T18:58:44.452Z,9.38
2017-09-18T19:01:13.440Z,8.90
2017-09-18T19:03:43.472Z,9.95
2017-09-18T19:06:12.460Z,10.13
2017-09-18T19:08:42.480Z,11.25
2017-09-18T19:11:12.492Z,22.70
2017-09-18T19:13:40.519Z,15.30
2017-09-18T19:16:08.539Z,15.18
2017-09-18T19:18:36.583Z,15.48
2017-09-18T19:21:09.268Z,15.77
2017-09-18T19:24:02.476Z,14.77
2017-09-18T19:26:31.432Z,13.00
2017-09-18T19:29:00.420Z,11.77
2017-09-18T19:31:32.755Z,13.85
2017-09-18T19:34:00.759Z,15.27
2017-09-18T19:36:36.307Z,20.00
2017-09-18T19:39:05.239Z,14.75
2017-09-18T19:41:33.268Z,18.23
2017-09-18T19:44:03.296Z,13.25
2017-09-18T19:46:34.791Z,13.02
2017-09-18T19:49:04.804Z,12.37
2017-09-18T19:51:34.563Z,13.35
2017-09-18T19:54:08.096Z,13.30
2017-09-18T19:56:36.115Z,12.85
2017-09-18T19:59:04.235Z,13.40
2017-09-18T20:01:33.241Z,12.85
2017-09-18T20:04:01.671Z,11.70
2017-09-18T20:06:32.712Z,13.20
2017-09-18T20:09:08.347Z,11.95
2017-09-18T20:11:37.647Z,13.80
2017-09-18T20:14:05.695Z,15.20
2017-09-18T20:16:33.927Z,16.92
2017-09-18T20:19:19.745Z,17.42
2017-09-18T20:21:50.581Z,18.25
2017-09-18T20:24:18.651Z,17.30
2017-09-18T20:26:46.695Z,15.32
2017-09-18T20:29:16.879Z,12.02
2017-09-18T20:31:45.507Z,15.23
2017-09-18T20:34:13.515Z,14.40
2017-09-18T20:36:41.547Z,14.80
2017-09-18T20:39:09.575Z,16.12
2017-09-18T20:41:38.571Z,14.98
2017-09-18T20:44:07.507Z,15.35
2017-09-18T20:46:37.479Z,18.92
2017-09-18T20:49:07.414Z,20.10
2017-09-18T20:51:40.667Z,14.38
2017-09-18T20:54:14.455Z,15.93
2017-09-18T20:56:43.402Z,13.65
2017-09-18T20:59:13.202Z,13.93
2017-09-18T21:01:42.018Z,13.60
2017-09-18T21:04:14.250Z,12.55
2017-09-18T21:06:42.278Z,25.10
2017-09-18T21:09:11.182Z,14.87
2017-09-18T21:11:40.186Z,12.90
2017-09-18T21:14:08.214Z,12.32
2017-09-18T21:16:36.254Z,14.77
2017-09-18T21:19:04.306Z,13.95
2017-09-18T21:21:33.230Z,14.93
2017-09-18T21:24:02.906Z,14.60
2017-09-18T21:26:37.298Z,16.80
2017-09-18T21:29:05.314Z,18.15
2017-09-18T21:31:34.106Z,16.95
2017-09-18T21:34:03.830Z,19.17
2017-09-18T21:36:31.851Z,22.00
2017-09-18T21:39:00.847Z,18.48
2017-09-18T21:41:30.814Z,19.33
2017-09-18T21:44:00.826Z,20.35
2017-09-18T21:46:30.338Z,22.10
2017-09-18T21:48:58.394Z,18.48
2017-09-18T21:51:30.814Z,22.77
2017-09-18T21:53:59.842Z,16.83
2017-09-18T21:56:30.607Z,22.13
2017-09-18T21:58:59.385Z,17.95
2017-09-18T22:01:27.438Z,18.05
2017-09-18T22:03:55.457Z,15.05
2017-09-18T22:06:29.634Z,18.15
2017-09-18T22:09:06.709Z,17.70
2017-09-18T22:11:37.398Z,16.95
2017-09-18T22:14:07.422Z,18.92
2017-09-18T22:16:35.446Z,21.33
2017-09-18T22:19:03.505Z,17.42
2017-09-18T22:21:31.521Z,16.55
2017-09-18T22:23:59.561Z,17.40
2017-09-18T22:26:27.597Z,20.40
2017-09-18T22:28:57.633Z,18.95
2017-09-18T22:31:25.661Z,16.10
2017-09-18T22:33:54.637Z,13.93
2017-09-18T22:36:22.665Z,13.62
2017-09-18T22:38:54.909Z,12.98
2017-09-18T22:41:22.933Z,13.85
2017-09-18T22:43:52.026Z,17.85
2017-09-18T22:46:20.046Z,20.70
2017-09-18T22:48:51.890Z,22.30
2017-09-18T22:51:19.924Z,22.35
2017-09-18T22:53:50.617Z,18.45
2017-09-18T22:56:19.425Z,20.83
2017-09-18T22:58:49.353Z,19.12
2017-09-18T23:01:19.117Z,21.83
2017-09-18T23:03:47.137Z,18.17
2017-09-18T23:06:18.673Z,14.60
2017-09-18T23:08:55.368Z,11.68
2017-09-18T23:11:27.065Z,12.05
2017-09-18T23:13:58.041Z,13.88
2017-09-18T23:16:30.001Z,12.25
2017-09-18T23:19:01.085Z,13.05
2017-09-18T23:21:30.093Z,11.27
2017-09-18T23:23:58.135Z,10.57
2017-09-18T23:26:44.017Z,11.43
2017-09-18T23:29:12.061Z,11.95
2017-09-18T23:31:42.041Z,11.88
2017-09-18T23:34:15.577Z,12.55
2017-09-18T23:36:44.542Z,12.13
2017-09-18T23:39:14.533Z,19.40
2017-09-18T23:41:42.565Z,13.62
2017-09-18T23:44:10.592Z,11.07
2017-09-18T23:46:57.461Z,13.45
2017-09-18T23:49:25.492Z,14.25
2017-09-18T23:51:54.453Z,12.93
2017-09-18T23:54:24.484Z,14.68
2017-09-18T23:56:53.277Z,13.45
2017-09-18T23:59:24.006Z,13.62
